Terminal Aerodrome Forecast
Issued by NWS Louisville, KY

Home | Current Version | Previous Version | Text Only | Print | Product List | Glossary On
Versions: 1 2 3 4 5 6 7 8 9 10 11 12 13 14
344
FTUS43 KLMK 210530
TAFLEX
TAF
KLEX 210530Z 2106/2206 16006KT P6SM SCT250
     FM211600 20009KT P6SM SCT040 BKN200
     FM212200 18005KT P6SM VCSH OVC060
     FM220000 17004KT 6SM -SHRA OVC035
     FM220200 18005KT 5SM -SHRA OVC025=

USA.gov is the U.S. government's official web portal to all federal, state and local government web resources and services.